sensor_id;sensor_type;location;lat;lon;timestamp;temperature;humidity
3752;DHT22;50827;47.014;7.652;2022-12-24T00:00:05;12.30;99.90
3752;DHT22;50827;47.014;7.652;2022-12-24T00:02:32;12.30;99.90
3752;DHT22;50827;47.014;7.652;2022-12-24T00:04:59;12.20;99.90
3752;DHT22;50827;47.014;7.652;2022-12-24T00:07:27;12.30;99.90
3752;DHT22;50827;47.014;7.652;2022-12-24T00:09:54;12.30;99.90
3752;DHT22;50827;47.014;7.652;2022-12-24T00:12:21;12.30;99.90
3752;DHT22;50827;47.014;7.652;2022-12-24T00:14:47;12.30;99.90
3752;DHT22;50827;47.014;7.652;2022-12-24T00:17:14;12.30;99.90
3752;DHT22;50827;47.014;7.652;2022-12-24T00:19:41;12.30;99.90
3752;DHT22;50827;47.014;7.652;2022-12-24T00:22:08;12.30;99.90
3752;DHT22;50827;47.014;7.652;2022-12-24T00:24:35;12.30;99.90
3752;DHT22;50827;47.014;7.652;2022-12-24T00:27:02;12.30;99.90
3752;DHT22;50827;47.014;7.652;2022-12-24T00:29:31;12.30;99.90
3752;DHT22;50827;47.014;7.652;2022-12-24T00:31:58;12.30;99.90
3752;DHT22;50827;47.014;7.652;2022-12-24T00:34:25;12.30;99.90
3752;DHT22;50827;47.014;7.652;2022-12-24T00:36:52;12.30;99.90
3752;DHT22;50827;47.014;7.652;2022-12-24T00:39:19;12.20;99.90
3752;DHT22;50827;47.014;7.652;2022-12-24T00:41:45;12.30;99.90
3752;DHT22;50827;47.014;7.652;2022-12-24T00:44:12;12.30;99.90
3752;DHT22;50827;47.014;7.652;2022-12-24T00:46:39;12.30;99.90
3752;DHT22;50827;47.014;7.652;2022-12-24T00:49:07;12.30;99.90
3752;DHT22;50827;47.014;7.652;2022-12-24T00:51:34;12.30;99.90
3752;DHT22;50827;47.014;7.652;2022-12-24T00:54:01;12.30;99.90
3752;DHT22;50827;47.014;7.652;2022-12-24T00:56:28;12.20;99.90
3752;DHT22;50827;47.014;7.652;2022-12-24T00:58:55;12.20;99.90
3752;DHT22;50827;47.014;7.652;2022-12-24T01:01:23;12.20;99.90
3752;DHT22;50827;47.014;7.652;2022-12-24T01:03:50;12.20;99.90
3752;DHT22;50827;47.014;7.652;2022-12-24T01:06:19;12.10;99.90
3752;DHT22;50827;47.014;7.652;2022-12-24T01:08:49;12.10;99.90
3752;DHT22;50827;47.014;7.652;2022-12-24T01:11:15;12.10;99.90
3752;DHT22;50827;47.014;7.652;2022-12-24T01:13:42;12.10;99.90
3752;DHT22;50827;47.014;7.652;2022-12-24T01:16:17;12.10;99.90
3752;DHT22;50827;47.014;7.652;2022-12-24T01:18:44;12.10;99.90
3752;DHT22;50827;47.014;7.652;2022-12-24T01:21:11;12.10;99.90
3752;DHT22;50827;47.014;7.652;2022-12-24T01:23:38;12.10;99.90
3752;DHT22;50827;47.014;7.652;2022-12-24T01:26:04;12.10;99.90
3752;DHT22;50827;47.014;7.652;2022-12-24T01:28:32;12.10;99.90
3752;DHT22;50827;47.014;7.652;2022-12-24T01:30:59;12.20;99.90
3752;DHT22;50827;47.014;7.652;2022-12-24T01:33:29;12.20;99.90
3752;DHT22;50827;47.014;7.652;2022-12-24T01:35:56;12.20;99.90
3752;DHT22;50827;47.014;7.652;2022-12-24T01:38:22;12.10;99.90
3752;DHT22;50827;47.014;7.652;2022-12-24T01:40:49;12.10;99.90
3752;DHT22;50827;47.014;7.652;2022-12-24T01:43:34;12.10;99.90
3752;DHT22;50827;47.014;7.652;2022-12-24T01:46:23;12.00;99.90
3752;DHT22;50827;47.014;7.652;2022-12-24T01:48:59;12.00;99.90
3752;DHT22;50827;47.014;7.652;2022-12-24T01:51:34;12.10;99.90
3752;DHT22;50827;47.014;7.652;2022-12-24T01:57:04;12.10;99.90
3752;DHT22;50827;47.014;7.652;2022-12-24T01:59:33;12.00;99.90
3752;DHT22;50827;47.014;7.652;2022-12-24T02:02:01;12.10;99.90
3752;DHT22;50827;47.014;7.652;2022-12-24T02:07:04;12.10;99.90
3752;DHT22;50827;47.014;7.652;2022-12-24T02:09:32;12.10;99.90
3752;DHT22;50827;47.014;7.652;2022-12-24T02:12:00;12.00;99.90
3752;DHT22;50827;47.014;7.652;2022-12-24T02:14:27;12.10;99.90
3752;DHT22;50827;47.014;7.652;2022-12-24T02:17:28;12.20;99.90
3752;DHT22;50827;47.014;7.652;2022-12-24T02:31:03;12.20;99.90
3752;DHT22;50827;47.014;7.652;2022-12-24T02:33:53;12.20;99.90
3752;DHT22;50827;47.014;7.652;2022-12-24T02:36:37;12.20;99.90
3752;DHT22;50827;47.014;7.652;2022-12-24T02:39:32;12.20;99.90
3752;DHT22;50827;47.014;7.652;2022-12-24T02:42:03;12.20;99.90
3752;DHT22;50827;47.014;7.652;2022-12-24T02:44:43;12.10;99.90
3752;DHT22;50827;47.014;7.652;2022-12-24T02:47:13;12.10;99.90
3752;DHT22;50827;47.014;7.652;2022-12-24T02:49:47;12.10;99.90
3752;DHT22;50827;47.014;7.652;2022-12-24T02:52:33;12.00;99.90
3752;DHT22;50827;47.014;7.652;2022-12-24T02:58:08;12.00;99.90
3752;DHT22;50827;47.014;7.652;2022-12-24T03:03:52;12.00;99.90
3752;DHT22;50827;47.014;7.652;2022-12-24T03:07:05;12.00;99.90
3752;DHT22;50827;47.014;7.652;2022-12-24T03:09:29;12.00;99.90
3752;DHT22;50827;47.014;7.652;2022-12-24T03:12:14;11.90;99.90
3752;DHT22;50827;47.014;7.652;2022-12-24T03:14:43;12.00;99.90
3752;DHT22;50827;47.014;7.652;2022-12-24T03:17:10;12.00;99.90
3752;DHT22;50827;47.014;7.652;2022-12-24T03:19:37;11.90;99.90
3752;DHT22;50827;47.014;7.652;2022-12-24T03:22:07;11.90;99.90
3752;DHT22;50827;47.014;7.652;2022-12-24T03:24:35;11.90;99.90
3752;DHT22;50827;47.014;7.652;2022-12-24T03:27:03;11.90;99.90
3752;DHT22;50827;47.014;7.652;2022-12-24T03:29:31;11.90;99.90
3752;DHT22;50827;47.014;7.652;2022-12-24T03:32:00;11.90;99.90
3752;DHT22;50827;47.014;7.652;2022-12-24T03:34:28;11.90;99.90
3752;DHT22;50827;47.014;7.652;2022-12-24T03:36:54;11.90;99.90
3752;DHT22;50827;47.014;7.652;2022-12-24T03:39:21;11.90;99.90
3752;DHT22;50827;47.014;7.652;2022-12-24T03:41:48;11.90;99.90
3752;DHT22;50827;47.014;7.652;2022-12-24T03:44:15;12.00;99.90
3752;DHT22;50827;47.014;7.652;2022-12-24T03:46:41;12.00;99.90
3752;DHT22;50827;47.014;7.652;2022-12-24T03:49:08;12.00;99.90
3752;DHT22;50827;47.014;7.652;2022-12-24T03:51:35;12.00;99.90
3752;DHT22;50827;47.014;7.652;2022-12-24T03:54:01;11.90;99.90
3752;DHT22;50827;47.014;7.652;2022-12-24T03:56:28;12.00;99.90
3752;DHT22;50827;47.014;7.652;2022-12-24T03:58:55;12.00;99.90
3752;DHT22;50827;47.014;7.652;2022-12-24T04:01:21;11.90;99.90
3752;DHT22;50827;47.014;7.652;2022-12-24T04:03:48;11.90;99.90
3752;DHT22;50827;47.014;7.652;2022-12-24T04:06:15;11.90;99.90
3752;DHT22;50827;47.014;7.652;2022-12-24T04:08:43;11.80;99.90
3752;DHT22;50827;47.014;7.652;2022-12-24T04:11:12;11.90;99.90
3752;DHT22;50827;47.014;7.652;2022-12-24T04:13:39;11.90;99.90
3752;DHT22;50827;47.014;7.652;2022-12-24T04:16:08;11.80;99.90
3752;DHT22;50827;47.014;7.652;2022-12-24T04:18:36;11.80;99.90
3752;DHT22;50827;47.014;7.652;2022-12-24T04:21:04;11.80;99.90
3752;DHT22;50827;47.014;7.652;2022-12-24T04:23:32;11.80;99.90
3752;DHT22;50827;47.014;7.652;2022-12-24T04:26:04;11.80;99.90
3752;DHT22;50827;47.014;7.652;2022-12-24T04:28:32;11.80;99.90
3752;DHT22;50827;47.014;7.652;2022-12-24T04:31:05;11.70;99.90
3752;DHT22;50827;47.014;7.652;2022-12-24T04:33:32;11.80;99.90
3752;DHT22;50827;47.014;7.652;2022-12-24T04:36:00;11.70;99.90
3752;DHT22;50827;47.014;7.652;2022-12-24T04:38:28;11.70;99.90
3752;DHT22;50827;47.014;7.652;2022-12-24T04:41:03;11.80;99.90
3752;DHT22;50827;47.014;7.652;2022-12-24T04:43:31;11.70;99.90
3752;DHT22;50827;47.014;7.652;2022-12-24T04:46:15;11.60;99.90
3752;DHT22;50827;47.014;7.652;2022-12-24T04:48:47;11.70;99.90
3752;DHT22;50827;47.014;7.652;2022-12-24T04:51:15;11.50;99.90
3752;DHT22;50827;47.014;7.652;2022-12-24T04:53:42;11.50;99.90
3752;DHT22;50827;47.014;7.652;2022-12-24T04:56:15;11.50;99.90
3752;DHT22;50827;47.014;7.652;2022-12-24T04:58:42;11.60;99.90
3752;DHT22;50827;47.014;7.652;2022-12-24T05:01:14;11.60;99.90
3752;DHT22;50827;47.014;7.652;2022-12-24T05:03:42;11.50;99.90
3752;DHT22;50827;47.014;7.652;2022-12-24T05:06:14;11.50;99.90
3752;DHT22;50827;47.014;7.652;2022-12-24T05:08:41;11.50;99.90
3752;DHT22;50827;47.014;7.652;2022-12-24T05:11:09;11.40;99.90
3752;DHT22;50827;47.014;7.652;2022-12-24T05:13:41;11.30;99.90
3752;DHT22;50827;47.014;7.652;2022-12-24T05:16:14;11.30;99.90
3752;DHT22;50827;47.014;7.652;2022-12-24T05:18:41;11.30;99.90
3752;DHT22;50827;47.014;7.652;2022-12-24T05:21:10;11.30;99.90
3752;DHT22;50827;47.014;7.652;2022-12-24T05:23:37;11.30;99.90
3752;DHT22;50827;47.014;7.652;2022-12-24T05:26:32;11.30;99.90
3752;DHT22;50827;47.014;7.652;2022-12-24T05:29:01;11.20;99.90
3752;DHT22;50827;47.014;7.652;2022-12-24T05:31:29;11.30;99.90
3752;DHT22;50827;47.014;7.652;2022-12-24T05:33:57;11.20;99.90
3752;DHT22;50827;47.014;7.652;2022-12-24T05:36:24;11.20;99.90
3752;DHT22;50827;47.014;7.652;2022-12-24T05:38:51;11.20;99.90
3752;DHT22;50827;47.014;7.652;2022-12-24T05:41:18;11.20;99.90
3752;DHT22;50827;47.014;7.652;2022-12-24T05:43:45;11.20;99.90
3752;DHT22;50827;47.014;7.652;2022-12-24T05:46:14;11.20;99.90
3752;DHT22;50827;47.014;7.652;2022-12-24T05:48:41;11.20;99.90
3752;DHT22;50827;47.014;7.652;2022-12-24T05:51:10;11.20;99.90
3752;DHT22;50827;47.014;7.652;2022-12-24T05:53:38;11.20;99.90
3752;DHT22;50827;47.014;7.652;2022-12-24T05:56:10;11.20;99.90
3752;DHT22;50827;47.014;7.652;2022-12-24T05:58:38;11.00;99.90
3752;DHT22;50827;47.014;7.652;2022-12-24T06:01:05;11.00;99.90
3752;DHT22;50827;47.014;7.652;2022-12-24T06:03:33;11.00;99.90
3752;DHT22;50827;47.014;7.652;2022-12-24T06:06:01;10.90;99.90
3752;DHT22;50827;47.014;7.652;2022-12-24T06:08:29;10.90;99.90
3752;DHT22;50827;47.014;7.652;2022-12-24T06:10:58;10.90;99.90
3752;DHT22;50827;47.014;7.652;2022-12-24T06:13:25;10.90;99.90
3752;DHT22;50827;47.014;7.652;2022-12-24T06:15:57;10.90;99.90
3752;DHT22;50827;47.014;7.652;2022-12-24T06:18:24;11.00;99.90
3752;DHT22;50827;47.014;7.652;2022-12-24T06:20:56;11.00;99.90
3752;DHT22;50827;47.014;7.652;2022-12-24T06:23:23;10.90;99.90
3752;DHT22;50827;47.014;7.652;2022-12-24T06:25:50;11.00;99.90
3752;DHT22;50827;47.014;7.652;2022-12-24T06:28:17;10.90;99.90
3752;DHT22;50827;47.014;7.652;2022-12-24T06:30:49;10.90;99.90
3752;DHT22;50827;47.014;7.652;2022-12-24T06:33:16;10.90;99.90
3752;DHT22;50827;47.014;7.652;2022-12-24T06:35:47;10.80;99.90
3752;DHT22;50827;47.014;7.652;2022-12-24T06:38:14;10.80;99.90
3752;DHT22;50827;47.014;7.652;2022-12-24T06:40:43;10.80;99.90
3752;DHT22;50827;47.014;7.652;2022-12-24T06:43:11;10.80;99.90
3752;DHT22;50827;47.014;7.652;2022-12-24T06:45:38;10.70;99.90
3752;DHT22;50827;47.014;7.652;2022-12-24T06:48:05;10.70;99.90
3752;DHT22;50827;47.014;7.652;2022-12-24T06:50:33;10.70;99.90
3752;DHT22;50827;47.014;7.652;2022-12-24T06:53:02;10.70;99.90
3752;DHT22;50827;47.014;7.652;2022-12-24T06:55:29;10.80;99.90
3752;DHT22;50827;47.014;7.652;2022-12-24T06:57:59;10.80;99.90
3752;DHT22;50827;47.014;7.652;2022-12-24T07:00:25;10.80;99.90
3752;DHT22;50827;47.014;7.652;2022-12-24T07:02:52;10.80;99.90
3752;DHT22;50827;47.014;7.652;2022-12-24T07:05:19;10.80;99.90
3752;DHT22;50827;47.014;7.652;2022-12-24T07:07:45;10.70;99.90
3752;DHT22;50827;47.014;7.652;2022-12-24T07:10:14;10.70;99.90
3752;DHT22;50827;47.014;7.652;2022-12-24T07:12:41;10.70;99.90
3752;DHT22;50827;47.014;7.652;2022-12-24T07:15:09;10.70;99.90
3752;DHT22;50827;47.014;7.652;2022-12-24T07:17:36;10.80;99.90
3752;DHT22;50827;47.014;7.652;2022-12-24T07:20:04;10.70;99.90
3752;DHT22;50827;47.014;7.652;2022-12-24T07:22:31;10.70;99.90
3752;DHT22;50827;47.014;7.652;2022-12-24T07:24:57;10.70;99.90
3752;DHT22;50827;47.014;7.652;2022-12-24T07:27:24;10.60;99.90
3752;DHT22;50827;47.014;7.652;2022-12-24T07:29:50;10.60;99.90
3752;DHT22;50827;47.014;7.652;2022-12-24T07:32:17;10.60;99.90
3752;DHT22;50827;47.014;7.652;2022-12-24T07:34:45;10.60;99.90
3752;DHT22;50827;47.014;7.652;2022-12-24T07:37:12;10.50;99.90
3752;DHT22;50827;47.014;7.652;2022-12-24T07:39:39;10.40;99.90
3752;DHT22;50827;47.014;7.652;2022-12-24T07:42:05;10.40;99.90
3752;DHT22;50827;47.014;7.652;2022-12-24T07:44:34;10.40;99.90
3752;DHT22;50827;47.014;7.652;2022-12-24T07:47:01;10.40;99.90
3752;DHT22;50827;47.014;7.652;2022-12-24T07:49:29;10.40;99.90
3752;DHT22;50827;47.014;7.652;2022-12-24T07:51:56;10.40;99.90
3752;DHT22;50827;47.014;7.652;2022-12-24T07:54:22;10.50;99.90
3752;DHT22;50827;47.014;7.652;2022-12-24T07:56:49;10.40;99.90
3752;DHT22;50827;47.014;7.652;2022-12-24T07:59:16;10.30;99.90
3752;DHT22;50827;47.014;7.652;2022-12-24T08:01:43;10.20;99.90
3752;DHT22;50827;47.014;7.652;2022-12-24T08:04:12;10.20;99.90
3752;DHT22;50827;47.014;7.652;2022-12-24T08:06:39;10.20;99.90
3752;DHT22;50827;47.014;7.652;2022-12-24T08:09:06;10.20;99.90
3752;DHT22;50827;47.014;7.652;2022-12-24T08:11:33;10.30;99.90
3752;DHT22;50827;47.014;7.652;2022-12-24T08:13:59;10.30;99.90
3752;DHT22;50827;47.014;7.652;2022-12-24T08:16:26;10.30;99.90
3752;DHT22;50827;47.014;7.652;2022-12-24T08:18:53;10.30;99.90
3752;DHT22;50827;47.014;7.652;2022-12-24T08:21:20;10.20;99.90
3752;DHT22;50827;47.014;7.652;2022-12-24T08:23:47;10.20;99.90
3752;DHT22;50827;47.014;7.652;2022-12-24T08:26:14;10.20;99.90
3752;DHT22;50827;47.014;7.652;2022-12-24T08:28:41;10.20;99.90
3752;DHT22;50827;47.014;7.652;2022-12-24T08:31:08;10.20;99.90
3752;DHT22;50827;47.014;7.652;2022-12-24T08:33:36;10.20;99.90
3752;DHT22;50827;47.014;7.652;2022-12-24T08:36:04;10.20;99.90
3752;DHT22;50827;47.014;7.652;2022-12-24T08:38:31;10.20;99.90
3752;DHT22;50827;47.014;7.652;2022-12-24T08:40:58;10.20;99.90
3752;DHT22;50827;47.014;7.652;2022-12-24T08:43:26;10.20;99.90
3752;DHT22;50827;47.014;7.652;2022-12-24T08:45:53;10.10;99.90
3752;DHT22;50827;47.014;7.652;2022-12-24T08:48:20;10.10;99.90
3752;DHT22;50827;47.014;7.652;2022-12-24T08:50:47;10.00;99.90
3752;DHT22;50827;47.014;7.652;2022-12-24T08:53:13;10.00;99.90
3752;DHT22;50827;47.014;7.652;2022-12-24T08:55:40;10.10;99.90
3752;DHT22;50827;47.014;7.652;2022-12-24T08:58:07;10.00;99.90
3752;DHT22;50827;47.014;7.652;2022-12-24T09:00:34;10.00;99.90
3752;DHT22;50827;47.014;7.652;2022-12-24T09:03:01;10.10;99.90
3752;DHT22;50827;47.014;7.652;2022-12-24T09:05:28;10.10;99.90
3752;DHT22;50827;47.014;7.652;2022-12-24T09:07:54;10.10;99.90
3752;DHT22;50827;47.014;7.652;2022-12-24T09:10:22;10.10;99.90
3752;DHT22;50827;47.014;7.652;2022-12-24T09:12:49;10.10;99.90
3752;DHT22;50827;47.014;7.652;2022-12-24T09:15:16;10.10;99.90
3752;DHT22;50827;47.014;7.652;2022-12-24T09:17:43;10.10;99.90
3752;DHT22;50827;47.014;7.652;2022-12-24T09:20:10;10.10;99.90
3752;DHT22;50827;47.014;7.652;2022-12-24T09:22:38;10.10;99.90
3752;DHT22;50827;47.014;7.652;2022-12-24T09:25:05;10.10;99.90
3752;DHT22;50827;47.014;7.652;2022-12-24T09:27:33;10.10;99.90
3752;DHT22;50827;47.014;7.652;2022-12-24T09:29:59;10.00;99.90
3752;DHT22;50827;47.014;7.652;2022-12-24T09:32:26;10.10;99.90
3752;DHT22;50827;47.014;7.652;2022-12-24T09:34:53;10.10;99.90
3752;DHT22;50827;47.014;7.652;2022-12-24T09:37:19;10.10;99.90
3752;DHT22;50827;47.014;7.652;2022-12-24T09:39:46;10.10;99.90
3752;DHT22;50827;47.014;7.652;2022-12-24T09:44:58;10.20;99.90
3752;DHT22;50827;47.014;7.652;2022-12-24T09:47:38;10.20;99.90
3752;DHT22;50827;47.014;7.652;2022-12-24T09:50:31;10.10;99.90
3752;DHT22;50827;47.014;7.652;2022-12-24T09:53:03;10.10;99.90
3752;DHT22;50827;47.014;7.652;2022-12-24T09:55:38;10.10;99.90
3752;DHT22;50827;47.014;7.652;2022-12-24T09:58:15;10.10;99.90
3752;DHT22;50827;47.014;7.652;2022-12-24T10:00:45;10.10;99.90
3752;DHT22;50827;47.014;7.652;2022-12-24T10:03:16;10.20;99.90
3752;DHT22;50827;47.014;7.652;2022-12-24T10:11:18;10.20;99.90
3752;DHT22;50827;47.014;7.652;2022-12-24T10:13:57;10.30;99.90
3752;DHT22;50827;47.014;7.652;2022-12-24T10:19:52;10.20;99.90
3752;DHT22;50827;47.014;7.652;2022-12-24T10:22:27;10.10;99.90
3752;DHT22;50827;47.014;7.652;2022-12-24T10:24:58;10.20;99.90
3752;DHT22;50827;47.014;7.652;2022-12-24T10:27:39;10.30;99.90
3752;DHT22;50827;47.014;7.652;2022-12-24T10:30:16;10.30;99.90
3752;DHT22;50827;47.014;7.652;2022-12-24T10:32:46;10.20;99.90
3752;DHT22;50827;47.014;7.652;2022-12-24T10:37:41;10.30;99.90
3752;DHT22;50827;47.014;7.652;2022-12-24T10:40:29;10.30;99.90
3752;DHT22;50827;47.014;7.652;2022-12-24T10:42:57;10.30;99.90
3752;DHT22;50827;47.014;7.652;2022-12-24T10:45:28;10.30;99.90
3752;DHT22;50827;47.014;7.652;2022-12-24T10:48:00;10.40;99.90
3752;DHT22;50827;47.014;7.652;2022-12-24T10:50:33;10.40;99.90
3752;DHT22;50827;47.014;7.652;2022-12-24T10:53:13;10.50;99.90
3752;DHT22;50827;47.014;7.652;2022-12-24T10:55:41;10.50;99.90
3752;DHT22;50827;47.014;7.652;2022-12-24T10:58:16;10.50;99.90
3752;DHT22;50827;47.014;7.652;2022-12-24T11:00:51;10.40;99.90
3752;DHT22;50827;47.014;7.652;2022-12-24T11:05:45;10.50;99.90
3752;DHT22;50827;47.014;7.652;2022-12-24T11:08:17;10.50;99.90
3752;DHT22;50827;47.014;7.652;2022-12-24T11:11:01;10.40;99.90
3752;DHT22;50827;47.014;7.652;2022-12-24T11:13:32;10.40;99.90
3752;DHT22;50827;47.014;7.652;2022-12-24T11:16:05;10.30;99.90
3752;DHT22;50827;47.014;7.652;2022-12-24T11:18:36;10.30;99.90
3752;DHT22;50827;47.014;7.652;2022-12-24T11:21:04;10.40;99.90
3752;DHT22;50827;47.014;7.652;2022-12-24T11:23:31;10.40;99.90
3752;DHT22;50827;47.014;7.652;2022-12-24T11:25:58;10.40;99.90
3752;DHT22;50827;47.014;7.652;2022-12-24T11:28:29;10.40;99.90
3752;DHT22;50827;47.014;7.652;2022-12-24T11:31:18;10.40;99.90
3752;DHT22;50827;47.014;7.652;2022-12-24T11:33:47;10.40;99.90
3752;DHT22;50827;47.014;7.652;2022-12-24T11:36:16;10.40;99.90
3752;DHT22;50827;47.014;7.652;2022-12-24T11:38:55;10.40;99.90
3752;DHT22;50827;47.014;7.652;2022-12-24T11:41:23;10.50;99.90
3752;DHT22;50827;47.014;7.652;2022-12-24T11:43:58;10.50;99.90
3752;DHT22;50827;47.014;7.652;2022-12-24T11:49:15;10.50;99.90
3752;DHT22;50827;47.014;7.652;2022-12-24T11:57:30;10.40;99.90
3752;DHT22;50827;47.014;7.652;2022-12-24T11:59:59;10.40;99.90
3752;DHT22;50827;47.014;7.652;2022-12-24T12:02:36;10.40;99.90
3752;DHT22;50827;47.014;7.652;2022-12-24T12:05:18;10.40;99.90
3752;DHT22;50827;47.014;7.652;2022-12-24T12:07:51;10.50;99.90
3752;DHT22;50827;47.014;7.652;2022-12-24T12:10:23;10.50;99.90
3752;DHT22;50827;47.014;7.652;2022-12-24T12:13:05;10.40;99.90
3752;DHT22;50827;47.014;7.652;2022-12-24T12:18:18;10.40;99.90
3752;DHT22;50827;47.014;7.652;2022-12-24T12:20:55;10.40;99.90
3752;DHT22;50827;47.014;7.652;2022-12-24T12:23:32;10.40;99.90
3752;DHT22;50827;47.014;7.652;2022-12-24T12:26:26;10.40;99.90
3752;DHT22;50827;47.014;7.652;2022-12-24T12:29:04;10.40;99.90
3752;DHT22;50827;47.014;7.652;2022-12-24T12:31:40;10.40;99.90
3752;DHT22;50827;47.014;7.652;2022-12-24T12:34:27;10.40;99.90
3752;DHT22;50827;47.014;7.652;2022-12-24T12:37:17;10.40;99.90
3752;DHT22;50827;47.014;7.652;2022-12-24T12:39:45;10.40;99.90
3752;DHT22;50827;47.014;7.652;2022-12-24T12:42:30;10.40;99.90
3752;DHT22;50827;47.014;7.652;2022-12-24T12:48:10;10.50;99.90
3752;DHT22;50827;47.014;7.652;2022-12-24T12:50:57;10.50;99.90
3752;DHT22;50827;47.014;7.652;2022-12-24T12:53:49;10.40;99.90
3752;DHT22;50827;47.014;7.652;2022-12-24T12:56:28;10.50;99.90
3752;DHT22;50827;47.014;7.652;2022-12-24T13:13:43;10.40;99.90
3752;DHT22;50827;47.014;7.652;2022-12-24T13:16:21;10.40;99.90
3752;DHT22;50827;47.014;7.652;2022-12-24T13:21:45;10.50;99.90
3752;DHT22;50827;47.014;7.652;2022-12-24T13:24:19;10.40;99.90
3752;DHT22;50827;47.014;7.652;2022-12-24T13:27:06;10.40;99.90
3752;DHT22;50827;47.014;7.652;2022-12-24T13:34:49;10.30;99.90
3752;DHT22;50827;47.014;7.652;2022-12-24T13:37:19;10.40;99.90
3752;DHT22;50827;47.014;7.652;2022-12-24T13:45:45;10.40;99.90
3752;DHT22;50827;47.014;7.652;2022-12-24T13:50:59;10.50;99.90
3752;DHT22;50827;47.014;7.652;2022-12-24T13:53:42;10.50;99.90
3752;DHT22;50827;47.014;7.652;2022-12-24T13:58:44;10.40;99.90
3752;DHT22;50827;47.014;7.652;2022-12-24T14:01:19;10.50;99.90
3752;DHT22;50827;47.014;7.652;2022-12-24T14:03:51;10.50;99.90
3752;DHT22;50827;47.014;7.652;2022-12-24T14:06:22;10.50;99.90
3752;DHT22;50827;47.014;7.652;2022-12-24T14:08:53;10.50;99.90
3752;DHT22;50827;47.014;7.652;2022-12-24T14:11:23;10.50;99.90
3752;DHT22;50827;47.014;7.652;2022-12-24T14:14:10;10.50;99.90
3752;DHT22;50827;47.014;7.652;2022-12-24T14:16:42;10.50;99.90
3752;DHT22;50827;47.014;7.652;2022-12-24T14:19:25;10.50;99.90
3752;DHT22;50827;47.014;7.652;2022-12-24T14:22:04;10.50;99.90
3752;DHT22;50827;47.014;7.652;2022-12-24T14:24:47;10.50;99.90
3752;DHT22;50827;47.014;7.652;2022-12-24T14:27:40;10.50;99.90
3752;DHT22;50827;47.014;7.652;2022-12-24T14:30:26;10.50;99.90
3752;DHT22;50827;47.014;7.652;2022-12-24T14:32:53;10.60;99.90
3752;DHT22;50827;47.014;7.652;2022-12-24T14:35:29;10.70;99.90
3752;DHT22;50827;47.014;7.652;2022-12-24T14:37:57;10.70;99.90
3752;DHT22;50827;47.014;7.652;2022-12-24T14:40:29;10.70;99.90
3752;DHT22;50827;47.014;7.652;2022-12-24T14:43:29;10.70;99.90
3752;DHT22;50827;47.014;7.652;2022-12-24T14:51:56;10.70;99.90
3752;DHT22;50827;47.014;7.652;2022-12-24T14:54:37;10.90;99.90
3752;DHT22;50827;47.014;7.652;2022-12-24T14:57:13;10.80;99.90
3752;DHT22;50827;47.014;7.652;2022-12-24T15:00:00;10.80;99.90
3752;DHT22;50827;47.014;7.652;2022-12-24T15:02:47;10.90;99.90
3752;DHT22;50827;47.014;7.652;2022-12-24T15:05:22;10.80;99.90
3752;DHT22;50827;47.014;7.652;2022-12-24T15:10:30;10.90;99.90
3752;DHT22;50827;47.014;7.652;2022-12-24T15:13:01;10.80;99.90
3752;DHT22;50827;47.014;7.652;2022-12-24T15:15:29;10.90;99.90
3752;DHT22;50827;47.014;7.652;2022-12-24T15:17:57;10.80;99.90
3752;DHT22;50827;47.014;7.652;2022-12-24T15:20:27;10.80;99.90
3752;DHT22;50827;47.014;7.652;2022-12-24T15:22:57;10.80;99.90
3752;DHT22;50827;47.014;7.652;2022-12-24T15:25:31;10.90;99.90
3752;DHT22;50827;47.014;7.652;2022-12-24T15:27:58;10.80;99.90
3752;DHT22;50827;47.014;7.652;2022-12-24T15:30:27;10.90;99.90
3752;DHT22;50827;47.014;7.652;2022-12-24T15:32:56;10.90;99.90
3752;DHT22;50827;47.014;7.652;2022-12-24T15:35:53;11.20;99.90
3752;DHT22;50827;47.014;7.652;2022-12-24T15:38:33;11.10;99.90
3752;DHT22;50827;47.014;7.652;2022-12-24T15:41:02;11.10;99.90
3752;DHT22;50827;47.014;7.652;2022-12-24T15:43:30;11.10;99.90
3752;DHT22;50827;47.014;7.652;2022-12-24T15:45:58;11.10;99.90
3752;DHT22;50827;47.014;7.652;2022-12-24T15:48:27;11.20;99.90
3752;DHT22;50827;47.014;7.652;2022-12-24T15:50:57;11.20;99.90
3752;DHT22;50827;47.014;7.652;2022-12-24T15:53:28;11.20;99.90
3752;DHT22;50827;47.014;7.652;2022-12-24T15:56:13;11.10;99.90
3752;DHT22;50827;47.014;7.652;2022-12-24T16:01:46;11.10;99.90
3752;DHT22;50827;47.014;7.652;2022-12-24T16:04:27;11.10;99.90
3752;DHT22;50827;47.014;7.652;2022-12-24T16:07:02;11.00;99.90
3752;DHT22;50827;47.014;7.652;2022-12-24T16:09:43;11.00;99.90
3752;DHT22;50827;47.014;7.652;2022-12-24T16:12:17;11.10;99.90
3752;DHT22;50827;47.014;7.652;2022-12-24T16:14:54;11.10;99.90
3752;DHT22;50827;47.014;7.652;2022-12-24T16:17:25;11.00;99.90
3752;DHT22;50827;47.014;7.652;2022-12-24T16:19:55;11.00;99.90
3752;DHT22;50827;47.014;7.652;2022-12-24T16:22:27;11.00;99.90
3752;DHT22;50827;47.014;7.652;2022-12-24T16:27:43;11.10;99.90
3752;DHT22;50827;47.014;7.652;2022-12-24T16:30:11;11.20;99.90
3752;DHT22;50827;47.014;7.652;2022-12-24T16:32:39;11.30;99.90
3752;DHT22;50827;47.014;7.652;2022-12-24T16:35:19;11.30;99.90
3752;DHT22;50827;47.014;7.652;2022-12-24T16:37:48;11.30;99.90
3752;DHT22;50827;47.014;7.652;2022-12-24T16:40:15;11.30;99.90
3752;DHT22;50827;47.014;7.652;2022-12-24T16:42:48;11.30;99.90
3752;DHT22;50827;47.014;7.652;2022-12-24T16:45:35;11.30;99.90
3752;DHT22;50827;47.014;7.652;2022-12-24T16:48:05;11.30;99.90
3752;DHT22;50827;47.014;7.652;2022-12-24T16:50:33;11.30;99.90
3752;DHT22;50827;47.014;7.652;2022-12-24T16:52:59;11.30;99.90
3752;DHT22;50827;47.014;7.652;2022-12-24T16:55:26;11.30;99.90
3752;DHT22;50827;47.014;7.652;2022-12-24T16:57:52;11.30;99.90
3752;DHT22;50827;47.014;7.652;2022-12-24T17:00:21;11.40;99.90
3752;DHT22;50827;47.014;7.652;2022-12-24T17:02:48;11.40;99.90
3752;DHT22;50827;47.014;7.652;2022-12-24T17:05:16;11.40;99.90
3752;DHT22;50827;47.014;7.652;2022-12-24T17:07:43;11.30;99.90
3752;DHT22;50827;47.014;7.652;2022-12-24T17:10:13;11.30;99.90
3752;DHT22;50827;47.014;7.652;2022-12-24T17:12:40;11.30;99.90
3752;DHT22;50827;47.014;7.652;2022-12-24T17:15:08;11.30;99.90
3752;DHT22;50827;47.014;7.652;2022-12-24T17:17:35;11.30;99.90
3752;DHT22;50827;47.014;7.652;2022-12-24T17:20:02;11.30;99.90
3752;DHT22;50827;47.014;7.652;2022-12-24T17:22:30;11.30;99.90
3752;DHT22;50827;47.014;7.652;2022-12-24T17:24:57;11.40;99.90
3752;DHT22;50827;47.014;7.652;2022-12-24T17:27:23;11.40;99.90
3752;DHT22;50827;47.014;7.652;2022-12-24T17:29:50;11.30;99.90
3752;DHT22;50827;47.014;7.652;2022-12-24T17:32:17;11.40;99.90
3752;DHT22;50827;47.014;7.652;2022-12-24T17:34:44;11.40;99.90
3752;DHT22;50827;47.014;7.652;2022-12-24T17:37:11;11.40;99.90
3752;DHT22;50827;47.014;7.652;2022-12-24T17:39:37;11.40;99.90
3752;DHT22;50827;47.014;7.652;2022-12-24T17:42:04;11.40;99.90
3752;DHT22;50827;47.014;7.652;2022-12-24T17:44:31;11.40;99.90
3752;DHT22;50827;47.014;7.652;2022-12-24T17:47:00;11.40;99.90
3752;DHT22;50827;47.014;7.652;2022-12-24T17:49:28;11.40;99.90